Time,TemperatureF,DewpointF,PressureIn,WindDirection,WindDirectionDegrees,WindSpeedMPH,WindSpeedGustMPH,Humidity,HourlyPrecipIn,Conditions,Clouds,dailyrainin,SoftwareType,DateUTC
2013-02-21 00:00:00,27.8,24.7,30.08,NW,325,0.0,0.0,88,0.00,,---,0.00,VWS V14.01,2013-02-21 08:00:00,
2013-02-21 00:04:00,30.5,26.2,30.05,NW,325,0.0,0.0,84,0.00,,---,0.00,VWS V14.01,2013-02-21 08:04:00,
2013-02-21 00:09:00,30.0,26.0,30.05,NW,325,0.0,0.0,85,0.00,,---,0.00,VWS V14.01,2013-02-21 08:09:00,
2013-02-21 00:14:00,29.6,25.6,30.05,NW,325,0.0,0.0,85,0.00,,---,0.00,VWS V14.01,2013-02-21 08:14:00,
2013-02-21 00:15:00,28.1,25.0,30.08,NW,325,0.0,0.0,88,0.00,,---,0.00,VWS V14.01,2013-02-21 08:15:00,
2013-02-21 00:19:00,29.0,25.4,30.05,NW,325,0.0,0.0,86,0.00,,---,0.00,VWS V14.01,2013-02-21 08:19:00,
2013-02-21 00:24:00,28.3,24.7,30.06,NW,325,0.0,0.0,86,0.00,,---,0.00,VWS V14.01,2013-02-21 08:24:00,
2013-02-21 00:29:00,27.9,24.3,30.06,NW,325,0.0,0.0,86,0.00,,---,0.00,VWS V14.01,2013-02-21 08:29:00,
2013-02-21 00:30:00,28.0,24.9,30.09,NW,320,0.0,4.0,88,0.00,,---,0.00,VWS V14.01,2013-02-21 08:30:00,
2013-02-21 00:34:00,27.6,24.2,30.06,NW,325,0.0,0.0,87,0.00,,---,0.00,VWS V14.01,2013-02-21 08:34:00,
2013-02-21 00:39:00,27.7,24.3,30.06,NW,325,0.0,0.0,87,0.00,,---,0.00,VWS V14.01,2013-02-21 08:39:00,
2013-02-21 00:44:00,27.6,24.2,30.07,NW,325,0.0,0.0,87,0.00,,---,0.00,VWS V14.01,2013-02-21 08:44:00,
2013-02-21 00:45:00,28.4,25.6,30.09,NW,321,0.0,0.0,89,0.00,,---,0.00,VWS V14.01,2013-02-21 08:45:00,
2013-02-21 00:49:00,27.5,24.1,30.07,NW,325,0.0,0.0,87,0.00,,---,0.00,VWS V14.01,2013-02-21 08:49:00,
2013-02-21 00:54:00,27.6,24.5,30.07,NW,325,0.0,0.0,88,0.00,,---,0.00,VWS V14.01,2013-02-21 08:54:00,
2013-02-21 00:59:00,27.7,24.6,30.08,NW,325,0.0,0.0,88,0.00,,---,0.00,VWS V14.01,2013-02-21 08:59:00,
2013-02-21 01:00:00,29.0,26.2,30.10,NW,320,0.0,0.0,89,0.00,,---,0.00,VWS V14.01,2013-02-21 09:00:00,
2013-02-21 01:04:00,28.0,24.9,30.08,NW,325,0.0,0.0,88,0.00,,---,0.00,VWS V14.01,2013-02-21 09:04:00,
2013-02-21 01:09:00,28.2,25.1,30.08,NW,325,0.0,0.0,88,0.00,,---,0.00,VWS V14.01,2013-02-21 09:09:00,
2013-02-21 01:14:00,28.2,25.1,30.08,NW,325,0.0,0.0,88,0.00,,---,0.00,VWS V14.01,2013-02-21 09:14:00,
2013-02-21 01:15:00,29.3,26.5,30.10,North,350,0.0,4.0,89,0.00,,---,0.00,VWS V14.01,2013-02-21 09:15:00,
2013-02-21 01:19:00,28.0,24.9,30.08,NW,325,0.0,0.0,88,0.00,,---,0.00,VWS V14.01,2013-02-21 09:19:00,
2013-02-21 01:24:00,28.1,25.0,30.09,NW,325,0.0,0.0,88,0.00,,---,0.00,VWS V14.01,2013-02-21 09:24:00,
2013-02-21 01:29:00,28.1,25.0,30.09,NW,320,0.0,4.0,88,0.00,,---,0.00,VWS V14.01,2013-02-21 09:29:00,
2013-02-21 01:30:00,29.6,26.8,30.09,NE,42,5.0,5.0,89,0.00,,---,0.00,VWS V14.01,2013-02-21 09:30:00,
2013-02-21 01:34:00,28.1,25.3,30.09,NW,320,0.0,0.0,89,0.00,,---,0.00,VWS V14.01,2013-02-21 09:34:00,
2013-02-21 01:39:00,28.2,25.4,30.09,NW,320,0.0,0.0,89,0.00,,---,0.00,VWS V14.01,2013-02-21 09:39:00,
2013-02-21 01:44:00,28.4,25.6,30.09,NW,319,0.0,0.0,89,0.00,,---,0.00,VWS V14.01,2013-02-21 09:44:00,
2013-02-21 01:45:00,29.6,26.5,30.09,ENE,78,0.0,6.0,88,0.00,,---,0.00,VWS V14.01,2013-02-21 09:45:00,
2013-02-21 01:49:00,28.6,25.8,30.10,NW,320,0.0,0.0,89,0.00,,---,0.00,VWS V14.01,2013-02-21 09:49:00,
2013-02-21 01:54:00,28.8,26.2,30.10,NW,320,0.0,0.0,90,0.00,,---,0.00,VWS V14.01,2013-02-21 09:54:00,
2013-02-21 01:59:00,28.9,26.1,30.10,NW,320,0.0,0.0,89,0.00,,---,0.00,VWS V14.01,2013-02-21 09:59:00,
2013-02-21 02:00:00,28.8,25.7,30.10,ENE,78,0.0,0.0,88,0.00,,---,0.00,VWS V14.01,2013-02-21 10:00:00,
2013-02-21 02:04:00,29.0,26.2,30.10,NW,319,0.0,0.0,89,0.00,,---,0.00,VWS V14.01,2013-02-21 10:04:00,
2013-02-21 02:09:00,29.2,26.4,30.10,North,351,4.0,4.0,89,0.00,,---,0.00,VWS V14.01,2013-02-21 10:09:00,
2013-02-21 02:14:00,29.2,26.4,30.10,North,351,0.0,4.0,89,0.00,,---,0.00,VWS V14.01,2013-02-21 10:14:00,
2013-02-21 02:15:00,28.2,25.1,30.08,ENE,77,0.0,3.0,88,0.00,,---,0.00,VWS V14.01,2013-02-21 10:15:00,
2013-02-21 02:19:00,29.2,26.4,30.10,North,351,3.0,4.0,89,0.00,,---,0.00,VWS V14.01,2013-02-21 10:19:00,
2013-02-21 02:24:00,29.2,26.4,30.09,North,360,0.0,4.0,89,0.00,,---,0.00,VWS V14.01,2013-02-21 10:24:00,
2013-02-21 02:29:00,29.6,26.8,30.09,NNE,26,5.0,5.0,89,0.00,,---,0.00,VWS V14.01,2013-02-21 10:29:00,
2013-02-21 02:30:00,27.4,24.6,30.09,ENE,76,0.0,0.0,89,0.00,,---,0.00,VWS V14.01,2013-02-21 10:30:00,
2013-02-21 02:34:00,29.8,26.7,30.09,ENE,78,5.0,6.0,88,0.00,,---,0.00,VWS V14.01,2013-02-21 10:34:00,
2013-02-21 02:39:00,29.8,26.7,30.09,ENE,78,4.0,6.0,88,0.00,,---,0.00,VWS V14.01,2013-02-21 10:39:00,
2013-02-21 02:44:00,29.6,26.5,30.09,ENE,78,0.0,6.0,88,0.00,,---,0.00,VWS V14.01,2013-02-21 10:44:00,
2013-02-21 02:45:00,26.2,23.4,30.09,ENE,76,0.0,0.0,89,0.00,,---,0.00,VWS V14.01,2013-02-21 10:45:00,
2013-02-21 02:49:00,29.4,26.3,30.09,ENE,78,0.0,0.0,88,0.00,,---,0.00,VWS V14.01,2013-02-21 10:49:00,
2013-02-21 02:54:00,29.2,26.1,30.09,ENE,78,0.0,0.0,88,0.00,,---,0.00,VWS V14.01,2013-02-21 10:54:00,
2013-02-21 02:59:00,28.9,25.8,30.10,ENE,78,0.0,0.0,88,0.00,,---,0.00,VWS V14.01,2013-02-21 10:59:00,
2013-02-21 03:00:00,24.9,21.9,30.10,ENE,64,0.0,4.0,88,0.00,,---,0.00,VWS V14.01,2013-02-21 11:00:00,
2013-02-21 03:04:00,28.7,25.6,30.09,ENE,78,0.0,0.0,88,0.00,,---,0.00,VWS V14.01,2013-02-21 11:04:00,
2013-02-21 03:09:00,28.7,25.9,30.08,ENE,78,3.0,3.0,89,0.00,,---,0.00,VWS V14.01,2013-02-21 11:09:00,
2013-02-21 03:14:00,28.4,25.3,30.08,ENE,77,0.0,3.0,88,0.00,,---,0.00,VWS V14.01,2013-02-21 11:14:00,
2013-02-21 03:15:00,25.6,23.3,30.10,ENE,64,0.0,0.0,91,0.00,,---,0.00,VWS V14.01,2013-02-21 11:15:00,
2013-02-21 03:19:00,27.9,24.8,30.08,ENE,77,0.0,0.0,88,0.00,,---,0.00,VWS V14.01,2013-02-21 11:19:00,
2013-02-21 03:24:00,27.9,25.1,30.08,ENE,76,0.0,0.0,89,0.00,,---,0.00,VWS V14.01,2013-02-21 11:24:00,
2013-02-21 03:29:00,27.4,24.6,30.09,ENE,76,0.0,0.0,89,0.00,,---,0.00,VWS V14.01,2013-02-21 11:29:00,
2013-02-21 03:30:00,25.5,23.0,30.11,ENE,64,0.0,0.0,90,0.00,,---,0.00,VWS V14.01,2013-02-21 11:30:00,
2013-02-21 03:34:00,27.2,24.4,30.09,ENE,77,0.0,0.0,89,0.00,,---,0.00,VWS V14.01,2013-02-21 11:34:00,
2013-02-21 03:39:00,26.6,23.5,30.09,ENE,77,0.0,0.0,88,0.00,,---,0.00,VWS V14.01,2013-02-21 11:39:00,
2013-02-21 03:44:00,26.2,23.4,30.09,ENE,77,0.0,0.0,89,0.00,,---,0.00,VWS V14.01,2013-02-21 11:44:00,
2013-02-21 03:45:00,25.8,23.3,30.11,ENE,64,0.0,0.0,90,0.00,,---,0.00,VWS V14.01,2013-02-21 11:45:00,
2013-02-21 03:49:00,26.1,23.3,30.09,ENE,77,0.0,4.0,89,0.00,,---,0.00,VWS V14.01,2013-02-21 11:49:00,
2013-02-21 03:54:00,25.7,22.6,30.10,ENE,76,0.0,4.0,88,0.00,,---,0.00,VWS V14.01,2013-02-21 11:54:00,
2013-02-21 03:59:00,25.0,22.0,30.10,ENE,64,0.0,4.0,88,0.00,,---,0.00,VWS V14.01,2013-02-21 11:59:00,
2013-02-21 04:00:00,25.7,23.2,30.11,ENE,64,0.0,0.0,90,0.00,,---,0.00,VWS V14.01,2013-02-21 12:00:00,
2013-02-21 04:04:00,24.7,21.9,30.10,ENE,64,0.0,0.0,89,0.00,,---,0.00,VWS V14.01,2013-02-21 12:04:00,
2013-02-21 04:09:00,24.9,22.4,30.10,ENE,64,0.0,0.0,90,0.00,,---,0.00,VWS V14.01,2013-02-21 12:09:00,
2013-02-21 04:14:00,25.4,23.1,30.10,ENE,64,0.0,0.0,91,0.00,,---,0.00,VWS V14.01,2013-02-21 12:14:00,
2013-02-21 04:15:00,26.3,23.8,30.11,ENE,64,0.0,1.0,90,0.00,,---,0.00,VWS V14.01,2013-02-21 12:15:00,
2013-02-21 04:19:00,25.7,23.2,30.10,ENE,64,0.0,0.0,90,0.00,,---,0.00,VWS V14.01,2013-02-21 12:19:00,
2013-02-21 04:23:00,25.7,23.2,30.10,ENE,64,0.0,0.0,90,0.00,,---,0.00,VWS V14.01,2013-02-21 12:23:00,
2013-02-21 04:28:00,25.5,23.0,30.10,ENE,64,0.0,0.0,90,0.00,,---,0.00,VWS V14.01,2013-02-21 12:28:00,
2013-02-21 04:30:00,26.0,23.2,30.12,ENE,69,0.0,2.0,89,0.00,,---,0.00,VWS V14.01,2013-02-21 12:30:00,
2013-02-21 04:33:00,25.4,22.9,30.11,ENE,64,0.0,0.0,90,0.00,,---,0.00,VWS V14.01,2013-02-21 12:33:00,
2013-02-21 04:38:00,25.4,22.9,30.11,ENE,64,0.0,0.0,90,0.00,,---,0.00,VWS V14.01,2013-02-21 12:38:00,
2013-02-21 04:43:00,25.8,23.5,30.11,ENE,64,0.0,0.0,91,0.00,,---,0.00,VWS V14.01,2013-02-21 12:43:00,
2013-02-21 04:45:00,25.8,23.3,30.11,ENE,69,0.0,0.0,90,0.00,,---,0.00,VWS V14.01,2013-02-21 12:45:00,
2013-02-21 04:48:00,25.9,23.4,30.11,ENE,64,0.0,0.0,90,0.00,,---,0.00,VWS V14.01,2013-02-21 12:48:00,
2013-02-21 04:53:00,25.5,23.0,30.11,ENE,64,0.0,0.0,90,0.00,,---,0.00,VWS V14.01,2013-02-21 12:53:00,
2013-02-21 04:58:00,25.7,23.2,30.11,ENE,64,0.0,0.0,90,0.00,,---,0.00,VWS V14.01,2013-02-21 12:58:00,
2013-02-21 05:00:00,26.7,24.2,30.11,ENE,69,0.0,4.0,90,0.00,,---,0.00,VWS V14.01,2013-02-21 13:00:00,
2013-02-21 05:03:00,25.6,23.1,30.11,ENE,64,0.0,0.0,90,0.00,,---,0.00,VWS V14.01,2013-02-21 13:03:00,
2013-02-21 05:08:00,25.9,23.6,30.11,ENE,64,0.0,1.0,91,0.00,,---,0.00,VWS V14.01,2013-02-21 13:08:00,
2013-02-21 05:13:00,26.3,23.8,30.11,ENE,64,0.0,1.0,90,0.00,,---,0.00,VWS V14.01,2013-02-21 13:13:00,
2013-02-21 05:15:00,26.4,23.9,30.11,ENE,69,0.0,0.0,90,0.00,,---,0.00,VWS V14.01,2013-02-21 13:15:00,
2013-02-21 05:18:00,26.3,23.8,30.12,ENE,64,0.0,0.0,90,0.00,,---,0.00,VWS V14.01,2013-02-21 13:18:00,
2013-02-21 05:23:00,26.3,23.8,30.12,ENE,64,0.0,0.0,90,0.00,,---,0.00,VWS V14.01,2013-02-21 13:23:00,
2013-02-21 05:28:00,26.1,23.3,30.12,ENE,69,0.0,2.0,89,0.00,,---,0.00,VWS V14.01,2013-02-21 13:28:00,
2013-02-21 05:30:00,24.8,22.3,30.11,NE,53,0.0,0.0,90,0.00,,---,0.00,VWS V14.01,2013-02-21 13:30:00,
2013-02-21 05:33:00,26.0,23.5,30.11,ENE,69,0.0,0.0,90,0.00,,---,0.00,VWS V14.01,2013-02-21 13:33:00,
2013-02-21 05:38:00,26.0,23.5,30.12,ENE,69,0.0,0.0,90,0.00,,---,0.00,VWS V14.01,2013-02-21 13:38:00,
2013-02-21 05:43:00,26.0,23.5,30.12,ENE,69,0.0,0.0,90,0.00,,---,0.00,VWS V14.01,2013-02-21 13:43:00,
2013-02-21 05:45:00,24.8,22.5,30.12,NE,53,0.0,3.0,91,0.00,,---,0.00,VWS V14.01,2013-02-21 13:45:00,
2013-02-21 05:48:00,26.3,23.8,30.11,ENE,69,0.0,0.0,90,0.00,,---,0.00,VWS V14.01,2013-02-21 13:48:00,
2013-02-21 05:53:00,26.9,24.4,30.11,ENE,69,1.0,1.0,90,0.00,,---,0.00,VWS V14.01,2013-02-21 13:53:00,
2013-02-21 05:58:00,26.6,24.1,30.11,ENE,69,3.0,4.0,90,0.00,,---,0.00,VWS V14.01,2013-02-21 13:58:00,
2013-02-21 06:00:00,25.2,23.0,30.13,NE,53,0.0,0.0,91,0.00,,---,0.00,VWS V14.01,2013-02-21 14:00:00,
2013-02-21 06:03:00,26.8,24.3,30.11,ENE,69,0.0,0.0,90,0.00,,---,0.00,VWS V14.01,2013-02-21 14:03:00,
2013-02-21 06:08:00,26.4,23.6,30.11,ENE,69,0.0,0.0,89,0.00,,---,0.00,VWS V14.01,2013-02-21 14:08:00,
2013-02-21 06:13:00,26.5,24.0,30.11,ENE,69,0.0,0.0,90,0.00,,---,0.00,VWS V14.01,2013-02-21 14:13:00,
2013-02-21 06:15:00,25.2,23.0,30.12,NE,53,0.0,0.0,91,0.00,,---,0.00,VWS V14.01,2013-02-21 14:15:00,
2013-02-21 06:18:00,25.8,23.0,30.11,ENE,68,0.0,0.0,89,0.00,,---,0.00,VWS V14.01,2013-02-21 14:18:00,
2013-02-21 06:23:00,25.1,22.3,30.11,NE,53,0.0,0.0,89,0.00,,---,0.00,VWS V14.01,2013-02-21 14:23:00,
2013-02-21 06:28:00,24.8,22.0,30.11,NE,52,0.0,0.0,89,0.00,,---,0.00,VWS V14.01,2013-02-21 14:28:00,
2013-02-21 06:30:00,25.2,23.0,30.12,NE,53,0.0,0.0,91,0.00,,---,0.00,VWS V14.01,2013-02-21 14:30:00,
2013-02-21 06:33:00,24.8,22.3,30.12,NE,52,0.0,3.0,90,0.00,,---,0.00,VWS V14.01,2013-02-21 14:33:00,
2013-02-21 06:38:00,24.8,22.3,30.12,NE,53,0.0,3.0,90,0.00,,---,0.00,VWS V14.01,2013-02-21 14:38:00,
2013-02-21 06:43:00,24.8,22.3,30.12,NE,53,0.0,3.0,90,0.00,,---,0.00,VWS V14.01,2013-02-21 14:43:00,
2013-02-21 06:45:00,27.3,25.0,30.11,SE,130,0.0,0.0,91,0.00,,---,0.00,VWS V14.01,2013-02-21 14:45:00,
2013-02-21 06:48:00,24.9,22.6,30.12,NE,53,0.0,0.0,91,0.00,,---,0.00,VWS V14.01,2013-02-21 14:48:00,
2013-02-21 06:53:00,25.3,23.0,30.12,NE,53,0.0,0.0,91,0.00,,---,0.00,VWS V14.01,2013-02-21 14:53:00,
2013-02-21 06:58:00,25.2,23.0,30.12,NE,53,0.0,0.0,91,0.00,,---,0.00,VWS V14.01,2013-02-21 14:58:00,
2013-02-21 07:00:00,29.2,26.6,30.12,SE,129,0.0,0.0,90,0.00,,---,0.00,VWS V14.01,2013-02-21 15:00:00,
2013-02-21 07:03:00,25.2,23.0,30.12,NE,53,0.0,0.0,91,0.00,,---,0.00,VWS V14.01,2013-02-21 15:03:00,
2013-02-21 07:08:00,25.2,23.0,30.13,NE,53,0.0,0.0,91,0.00,,---,0.00,VWS V14.01,2013-02-21 15:08:00,
2013-02-21 07:13:00,25.2,23.0,30.12,NE,53,0.0,0.0,91,0.00,,---,0.00,VWS V14.01,2013-02-21 15:13:00,
2013-02-21 07:15:00,31.1,27.1,30.13,East,101,0.0,2.0,85,0.00,,---,0.00,VWS V14.01,2013-02-21 15:15:00,
2013-02-21 07:18:00,25.2,23.0,30.13,NE,53,0.0,0.0,91,0.00,,---,0.00,VWS V14.01,2013-02-21 15:18:00,
2013-02-21 07:23:00,25.2,23.0,30.12,NE,53,0.0,0.0,91,0.00,,---,0.00,VWS V14.01,2013-02-21 15:23:00,
2013-02-21 07:28:00,25.2,23.0,30.12,NE,53,0.0,0.0,91,0.00,,---,0.00,VWS V14.01,2013-02-21 15:28:00,
2013-02-21 07:30:00,31.7,27.1,30.12,East,101,0.0,5.0,83,0.00,,---,0.00,VWS V14.01,2013-02-21 15:30:00,
2013-02-21 07:33:00,25.2,23.0,30.12,NE,53,0.0,0.0,91,0.00,,---,0.00,VWS V14.01,2013-02-21 15:33:00,
2013-02-21 07:38:00,25.2,23.0,30.11,NE,52,0.0,0.0,91,0.00,,---,0.00,VWS V14.01,2013-02-21 15:38:00,
2013-02-21 07:43:00,27.3,25.0,30.11,SE,129,0.0,0.0,91,0.00,,---,0.00,VWS V14.01,2013-02-21 15:43:00,
2013-02-21 07:45:00,31.7,26.8,30.13,East,101,0.0,1.0,82,0.00,,---,0.00,VWS V14.01,2013-02-21 15:45:00,
2013-02-21 07:48:00,27.8,25.2,30.11,SE,129,0.0,0.0,90,0.00,,---,0.00,VWS V14.01,2013-02-21 15:48:00,
2013-02-21 07:53:00,28.3,25.8,30.12,SE,130,0.0,0.0,90,0.00,,---,0.00,VWS V14.01,2013-02-21 15:53:00,
2013-02-21 07:58:00,28.8,26.2,30.12,SE,130,0.0,0.0,90,0.00,,---,0.00,VWS V14.01,2013-02-21 15:58:00,
2013-02-21 08:00:00,32.5,27.0,30.13,East,101,0.0,0.0,80,0.00,,---,0.00,VWS V14.01,2013-02-21 16:00:00,
2013-02-21 08:03:00,29.7,26.9,30.12,SE,129,0.0,0.0,89,0.00,,---,0.00,VWS V14.01,2013-02-21 16:03:00,
2013-02-21 08:08:00,30.6,27.2,30.12,SE,128,0.0,0.0,87,0.00,,---,0.00,VWS V14.01,2013-02-21 16:08:00,
2013-02-21 08:13:00,31.0,27.3,30.13,SE,124,0.0,0.0,86,0.00,,---,0.00,VWS V14.01,2013-02-21 16:13:00,
2013-02-21 08:15:00,33.2,27.1,30.13,East,101,0.0,0.0,78,0.00,,---,0.00,VWS V14.01,2013-02-21 16:15:00,
2013-02-21 08:18:00,31.3,27.0,30.13,East,101,0.0,0.0,84,0.00,,---,0.00,VWS V14.01,2013-02-21 16:18:00,
2013-02-21 08:23:00,31.5,27.2,30.13,East,101,0.0,0.0,84,0.00,,---,0.00,VWS V14.01,2013-02-21 16:23:00,
2013-02-21 08:28:00,31.7,27.1,30.13,East,101,0.0,0.0,83,0.00,,---,0.00,VWS V14.01,2013-02-21 16:28:00,
2013-02-21 08:30:00,35.3,27.2,30.13,East,101,0.0,0.0,72,0.00,,---,0.00,VWS V14.01,2013-02-21 16:30:00,
2013-02-21 08:33:00,31.7,27.1,30.12,East,101,0.0,0.0,83,0.00,,---,0.00,VWS V14.01,2013-02-21 16:33:00,
2013-02-21 08:38:00,31.5,26.6,30.13,East,101,0.0,1.0,82,0.00,,---,0.00,VWS V14.01,2013-02-21 16:38:00,
2013-02-21 08:43:00,31.7,27.1,30.13,East,101,0.0,1.0,83,0.00,,---,0.00,VWS V14.01,2013-02-21 16:43:00,
2013-02-21 08:45:00,35.0,26.9,30.14,East,101,0.0,0.0,72,0.00,,---,0.00,VWS V14.01,2013-02-21 16:45:00,
2013-02-21 08:48:00,31.7,26.8,30.13,East,101,0.0,0.0,82,0.00,,---,0.00,VWS V14.01,2013-02-21 16:48:00,
2013-02-21 08:53:00,32.1,27.2,30.13,East,101,0.0,0.0,82,0.00,,---,0.00,VWS V14.01,2013-02-21 16:53:00,
2013-02-21 08:58:00,32.4,27.2,30.13,East,101,0.0,0.0,81,0.00,,---,0.00,VWS V14.01,2013-02-21 16:58:00,
2013-02-21 09:00:00,34.4,26.7,30.14,ESE,114,0.0,1.0,73,0.00,,---,0.00,VWS V14.01,2013-02-21 17:00:00,
2013-02-21 09:03:00,32.6,26.8,30.13,East,101,0.0,0.0,79,0.00,,---,0.00,VWS V14.01,2013-02-21 17:03:00,
2013-02-21 09:08:00,32.8,27.0,30.13,East,101,0.0,0.0,79,0.00,,---,0.00,VWS V14.01,2013-02-21 17:08:00,
2013-02-21 09:13:00,33.0,26.9,30.14,East,101,0.0,0.0,78,0.00,,---,0.00,VWS V14.01,2013-02-21 17:13:00,
2013-02-21 09:15:00,34.7,26.9,30.14,West,261,0.0,5.0,73,0.00,,---,0.00,VWS V14.01,2013-02-21 17:15:00,
2013-02-21 09:18:00,33.5,27.4,30.13,East,101,0.0,0.0,78,0.00,,---,0.00,VWS V14.01,2013-02-21 17:18:00,
2013-02-21 09:23:00,34.4,27.3,30.13,East,101,0.0,0.0,75,0.00,,---,0.00,VWS V14.01,2013-02-21 17:23:00,
2013-02-21 09:28:00,35.0,27.2,30.13,East,101,0.0,0.0,73,0.00,,---,0.00,VWS V14.01,2013-02-21 17:28:00,
2013-02-21 09:30:00,35.2,26.8,30.14,West,261,0.0,1.0,71,0.00,,---,0.00,VWS V14.01,2013-02-21 17:30:00,
2013-02-21 09:33:00,35.6,27.5,30.13,East,101,0.0,0.0,72,0.00,,---,0.00,VWS V14.01,2013-02-21 17:33:00,
2013-02-21 09:38:00,35.2,26.8,30.13,East,101,0.0,0.0,71,0.00,,---,0.00,VWS V14.01,2013-02-21 17:38:00,
2013-02-21 09:43:00,35.0,26.6,30.14,East,101,0.0,0.0,71,0.00,,---,0.00,VWS V14.01,2013-02-21 17:43:00,
2013-02-21 09:45:00,36.5,25.5,30.14,SSW,194,0.0,8.0,64,0.00,,---,0.00,VWS V14.01,2013-02-21 17:45:00,
2013-02-21 09:48:00,35.0,26.6,30.14,East,101,0.0,0.0,71,0.00,,---,0.00,VWS V14.01,2013-02-21 17:48:00,
2013-02-21 09:53:00,34.8,26.4,30.14,East,101,0.0,1.0,71,0.00,,---,0.00,VWS V14.01,2013-02-21 17:53:00,
2013-02-21 09:58:00,34.5,26.4,30.14,ESE,102,0.0,1.0,72,0.00,,---,0.00,VWS V14.01,2013-02-21 17:58:00,
2013-02-21 10:00:00,36.7,25.7,30.14,SSW,200,5.0,7.0,64,0.00,,---,0.00,VWS V14.01,2013-02-21 18:00:00,
2013-02-21 10:03:00,34.4,26.7,30.14,ESE,114,0.0,0.0,73,0.00,,---,0.00,VWS V14.01,2013-02-21 18:03:00,
2013-02-21 10:08:00,34.4,26.7,30.15,West,261,0.0,5.0,73,0.00,,---,0.00,VWS V14.01,2013-02-21 18:08:00,
2013-02-21 10:13:00,34.6,27.2,30.15,West,261,0.0,5.0,74,0.00,,---,0.00,VWS V14.01,2013-02-21 18:13:00,
2013-02-21 10:15:00,36.7,25.3,30.14,WSW,245,0.0,8.0,63,0.00,,---,0.00,VWS V14.01,2013-02-21 18:15:00,
2013-02-21 10:18:00,34.9,26.8,30.14,West,260,0.0,0.0,72,0.00,,---,0.00,VWS V14.01,2013-02-21 18:18:00,
2013-02-21 10:23:00,35.1,26.7,30.14,West,260,0.0,0.0,71,0.00,,---,0.00,VWS V14.01,2013-02-21 18:23:00,
2013-02-21 10:28:00,35.2,26.8,30.14,West,261,0.0,1.0,71,0.00,,---,0.00,VWS V14.01,2013-02-21 18:28:00,
2013-02-21 10:30:00,37.2,25.4,30.14,SW,231,2.0,3.0,62,0.00,,---,0.00,VWS V14.01,2013-02-21 18:30:00,
2013-02-21 10:33:00,35.3,26.9,30.14,West,261,0.0,0.0,71,0.00,,---,0.00,VWS V14.01,2013-02-21 18:33:00,
2013-02-21 10:38:00,35.8,26.3,30.13,WSW,240,0.0,4.0,68,0.00,,---,0.00,VWS V14.01,2013-02-21 18:38:00,
2013-02-21 10:43:00,36.3,25.7,30.13,SSW,194,3.0,8.0,65,0.00,,---,0.00,VWS V14.01,2013-02-21 18:43:00,
2013-02-21 10:45:00,37.6,23.8,30.14,SW,222,8.0,14.0,57,0.00,,---,0.00,VWS V14.01,2013-02-21 18:45:00,
2013-02-21 10:48:00,36.6,25.6,30.14,SW,215,0.0,6.0,64,0.00,,---,0.00,VWS V14.01,2013-02-21 18:48:00,
2013-02-21 10:53:00,36.8,25.4,30.14,SW,226,5.0,7.0,63,0.00,,---,0.00,VWS V14.01,2013-02-21 18:53:00,
2013-02-21 10:58:00,36.7,25.7,30.14,WSW,238,0.0,7.0,64,0.00,,---,0.00,VWS V14.01,2013-02-21 18:58:00,
2013-02-21 11:00:00,37.8,22.2,30.13,SW,232,12.0,18.0,53,0.00,,---,0.00,VWS V14.01,2013-02-21 19:00:00,
2013-02-21 11:03:00,36.8,25.4,30.14,SW,215,0.0,8.0,63,0.00,,---,0.00,VWS V14.01,2013-02-21 19:03:00,
2013-02-21 11:08:00,36.8,25.4,30.14,WSW,255,5.0,8.0,63,0.00,,---,0.00,VWS V14.01,2013-02-21 19:08:00,
2013-02-21 11:12:00,36.7,25.3,30.14,WSW,246,3.0,8.0,63,0.00,,---,0.00,VWS V14.01,2013-02-21 19:12:00,
2013-02-21 11:15:00,37.7,23.0,30.13,WSW,242,7.0,20.0,55,0.00,,---,0.00,VWS V14.01,2013-02-21 19:15:00,
2013-02-21 11:17:00,36.8,25.4,30.14,SW,230,0.0,3.0,63,0.00,,---,0.00,VWS V14.01,2013-02-21 19:17:00,
2013-02-21 11:22:00,36.9,25.1,30.14,SW,228,0.0,3.0,62,0.00,,---,0.00,VWS V14.01,2013-02-21 19:22:00,
2013-02-21 11:27:00,37.1,25.3,30.14,SW,232,0.0,3.0,62,0.00,,---,0.00,VWS V14.01,2013-02-21 19:27:00,
2013-02-21 11:30:00,37.9,22.8,30.13,WSW,240,11.0,17.0,54,0.00,,---,0.00,VWS V14.01,2013-02-21 19:30:00,
2013-02-21 11:32:00,37.3,24.7,30.14,SSW,213,3.0,9.0,60,0.00,,---,0.00,VWS V14.01,2013-02-21 19:32:00,
2013-02-21 11:37:00,37.7,24.7,30.14,SW,219,8.0,10.0,59,0.00,,---,0.00,VWS V14.01,2013-02-21 19:37:00,
2013-02-21 11:42:00,37.7,23.9,30.14,SW,230,12.0,14.0,57,0.00,,---,0.00,VWS V14.01,2013-02-21 19:42:00,
2013-02-21 11:45:00,38.0,23.3,30.13,SW,220,10.0,22.0,55,0.00,,---,0.00,VWS V14.01,2013-02-21 19:45:00,
2013-02-21 11:47:00,37.6,22.9,30.14,SW,217,6.0,12.0,55,0.00,,---,0.00,VWS V14.01,2013-02-21 19:47:00,
2013-02-21 11:52:00,37.6,22.0,30.14,WSW,240,10.0,17.0,53,0.00,,---,0.00,VWS V14.01,2013-02-21 19:52:00,
2013-02-21 11:57:00,38.0,22.9,30.13,WSW,242,12.0,18.0,54,0.00,,---,0.00,VWS V14.01,2013-02-21 19:57:00,
2013-02-21 12:00:00,38.0,23.7,30.12,SW,225,13.0,18.0,56,0.00,,---,0.00,VWS V14.01,2013-02-21 20:00:00,
2013-02-21 12:02:00,37.8,23.1,30.13,WSW,250,18.0,20.0,55,0.00,,---,0.00,VWS V14.01,2013-02-21 20:02:00,
2013-02-21 12:07:00,37.6,22.5,30.13,WSW,238,14.0,20.0,54,0.00,,---,0.00,VWS V14.01,2013-02-21 20:07:00,
2013-02-21 12:12:00,37.8,22.7,30.13,WSW,248,14.0,20.0,54,0.00,,---,0.00,VWS V14.01,2013-02-21 20:12:00,
2013-02-21 12:15:00,38.2,24.7,30.12,SW,234,22.0,23.0,58,0.00,,---,0.00,VWS V14.01,2013-02-21 20:15:00,
2013-02-21 12:17:00,37.8,23.1,30.13,SSW,211,7.0,16.0,55,0.00,,---,0.00,VWS V14.01,2013-02-21 20:17:00,
2013-02-21 12:22:00,38.0,23.7,30.13,SW,234,11.0,16.0,56,0.00,,---,0.00,VWS V14.01,2013-02-21 20:22:00,
2013-02-21 12:27:00,38.1,23.4,30.13,WSW,247,15.0,16.0,55,0.00,,---,0.00,VWS V14.01,2013-02-21 20:27:00,
2013-02-21 12:30:00,37.5,24.1,30.13,SW,234,18.0,22.0,58,0.00,,---,0.00,VWS V14.01,2013-02-21 20:30:00,
2013-02-21 12:32:00,38.0,23.7,30.13,SW,221,10.0,12.0,56,0.00,,---,0.00,VWS V14.01,2013-02-21 20:32:00,
2013-02-21 12:37:00,38.2,23.0,30.13,SW,225,16.0,22.0,54,0.00,,---,0.00,VWS V14.01,2013-02-21 20:37:00,
2013-02-21 12:42:00,38.1,23.4,30.13,SW,229,12.0,22.0,55,0.00,,---,0.00,VWS V14.01,2013-02-21 20:42:00,
2013-02-21 12:45:00,37.5,24.9,30.13,WSW,244,8.0,18.0,60,0.00,,---,0.00,VWS V14.01,2013-02-21 20:45:00,
2013-02-21 12:47:00,38.1,23.8,30.12,SW,218,14.0,16.0,56,0.00,,---,0.00,VWS V14.01,2013-02-21 20:47:00,
2013-02-21 12:52:00,38.1,23.8,30.13,South,190,9.0,18.0,56,0.00,,---,0.00,VWS V14.01,2013-02-21 20:52:00,
2013-02-21 12:57:00,38.0,23.7,30.12,SW,228,17.0,18.0,56,0.00,,---,0.00,VWS V14.01,2013-02-21 20:57:00,
2013-02-21 13:00:00,37.9,24.9,30.12,SW,217,6.0,13.0,59,0.00,,---,0.00,VWS V14.01,2013-02-21 21:00:00,
2013-02-21 13:02:00,38.0,24.1,30.12,SW,227,16.0,18.0,57,0.00,,---,0.00,VWS V14.01,2013-02-21 21:02:00,
2013-02-21 13:07:00,38.0,24.1,30.12,SW,221,7.0,22.0,57,0.00,,---,0.00,VWS V14.01,2013-02-21 21:07:00,
2013-02-21 13:12:00,38.1,23.8,30.12,SW,230,14.0,23.0,56,0.00,,---,0.00,VWS V14.01,2013-02-21 21:12:00,
2013-02-21 13:15:00,37.8,24.8,30.11,SSW,204,2.0,12.0,59,0.00,,---,0.00,VWS V14.01,2013-02-21 21:15:00,
2013-02-21 13:17:00,38.0,24.1,30.12,SW,221,14.0,22.0,57,0.00,,---,0.00,VWS V14.01,2013-02-21 21:17:00,
2013-02-21 13:22:00,37.8,24.0,30.12,SSW,203,15.0,22.0,57,0.00,,---,0.00,VWS V14.01,2013-02-21 21:22:00,
2013-02-21 13:27:00,37.5,24.1,30.12,SW,225,15.0,22.0,58,0.00,,---,0.00,VWS V14.01,2013-02-21 21:27:00,
2013-02-21 13:30:00,37.9,24.5,30.12,SW,215,0.0,8.0,58,0.00,,---,0.00,VWS V14.01,2013-02-21 21:30:00,
2013-02-21 13:32:00,37.5,24.1,30.12,SW,236,13.0,18.0,58,0.00,,---,0.00,VWS V14.01,2013-02-21 21:32:00,
2013-02-21 13:37:00,37.5,24.5,30.12,SW,234,9.0,18.0,59,0.00,,---,0.00,VWS V14.01,2013-02-21 21:37:00,
2013-02-21 13:42:00,37.5,24.9,30.13,SW,235,10.0,18.0,60,0.00,,---,0.00,VWS V14.01,2013-02-21 21:42:00,
2013-02-21 13:45:00,37.9,24.5,30.12,SSW,194,0.0,6.0,58,0.00,,---,0.00,VWS V14.01,2013-02-21 21:45:00,
2013-02-21 13:47:00,37.5,24.5,30.13,South,187,6.0,9.0,59,0.00,,---,0.00,VWS V14.01,2013-02-21 21:47:00,
2013-02-21 13:52:00,37.7,24.7,30.12,SW,232,3.0,9.0,59,0.00,,---,0.00,VWS V14.01,2013-02-21 21:52:00,
2013-02-21 13:57:00,37.8,24.8,30.12,SSW,213,5.0,13.0,59,0.00,,---,0.00,VWS V14.01,2013-02-21 21:57:00,
2013-02-21 14:00:00,37.9,24.9,30.11,SSW,206,0.0,7.0,59,0.00,,---,0.00,VWS V14.01,2013-02-21 22:00:00,
2013-02-21 14:02:00,37.9,24.5,30.12,SSW,211,6.0,12.0,58,0.00,,---,0.00,VWS V14.01,2013-02-21 22:02:00,
2013-02-21 14:07:00,37.8,25.2,30.11,SW,217,9.0,12.0,60,0.00,,---,0.00,VWS V14.01,2013-02-21 22:07:00,
2013-02-21 14:12:00,37.7,24.7,30.12,SW,221,7.0,12.0,59,0.00,,---,0.00,VWS V14.01,2013-02-21 22:12:00,
2013-02-21 14:15:00,38.2,25.1,30.11,SW,228,3.0,8.0,59,0.00,,---,0.00,VWS V14.01,2013-02-21 22:15:00,
2013-02-21 14:17:00,37.8,24.4,30.11,South,184,4.0,8.0,58,0.00,,---,0.00,VWS V14.01,2013-02-21 22:17:00,
2013-02-21 14:22:00,38.0,25.4,30.12,SSE,168,0.0,8.0,60,0.00,,---,0.00,VWS V14.01,2013-02-21 22:22:00,
2013-02-21 14:27:00,38.0,24.5,30.12,SSW,204,2.0,8.0,58,0.00,,---,0.00,VWS V14.01,2013-02-21 22:27:00,
2013-02-21 14:30:00,38.4,25.3,30.11,SW,231,6.0,13.0,59,0.00,,---,0.00,VWS V14.01,2013-02-21 22:30:00,
2013-02-21 14:32:00,37.9,24.5,30.12,SW,215,4.0,6.0,58,0.00,,---,0.00,VWS V14.01,2013-02-21 22:32:00,
2013-02-21 14:37:00,37.9,24.9,30.12,SW,214,0.0,6.0,59,0.00,,---,0.00,VWS V14.01,2013-02-21 22:37:00,
2013-02-21 14:42:00,38.0,24.5,30.12,South,189,0.0,6.0,58,0.00,,---,0.00,VWS V14.01,2013-02-21 22:42:00,
2013-02-21 14:45:00,38.8,25.7,30.11,SSW,211,0.0,11.0,59,0.00,,---,0.00,VWS V14.01,2013-02-21 22:45:00,
2013-02-21 14:47:00,37.9,24.5,30.12,SSW,193,0.0,0.0,58,0.00,,---,0.00,VWS V14.01,2013-02-21 22:47:00,
2013-02-21 14:52:00,37.9,24.5,30.12,SW,227,4.0,6.0,58,0.00,,---,0.00,VWS V14.01,2013-02-21 22:52:00,
2013-02-21 14:57:00,37.9,24.9,30.12,SW,217,0.0,6.0,59,0.00,,---,0.00,VWS V14.01,2013-02-21 22:57:00,
2013-02-21 15:00:00,39.0,24.6,30.11,SW,219,15.0,20.0,56,0.00,,---,0.00,VWS V14.01,2013-02-21 23:00:00,
2013-02-21 15:02:00,37.9,24.9,30.11,SW,230,8.0,8.0,59,0.00,,---,0.00,VWS V14.01,2013-02-21 23:02:00,
2013-02-21 15:07:00,38.0,25.0,30.11,SW,214,0.0,8.0,59,0.00,,---,0.00,VWS V14.01,2013-02-21 23:07:00,
2013-02-21 15:12:00,38.2,25.1,30.11,SW,215,0.0,8.0,59,0.00,,---,0.00,VWS V14.01,2013-02-21 23:12:00,
2013-02-21 15:15:00,38.6,24.7,30.11,SW,224,8.0,19.0,57,0.00,,---,0.00,VWS V14.01,2013-02-21 23:15:00,
2013-02-21 15:17:00,38.3,24.8,30.11,SW,230,8.0,10.0,58,0.00,,---,0.00,VWS V14.01,2013-02-21 23:17:00,
2013-02-21 15:22:00,38.3,25.2,30.11,SW,231,8.0,11.0,59,0.00,,---,0.00,VWS V14.01,2013-02-21 23:22:00,
2013-02-21 15:27:00,38.3,25.2,30.11,SW,230,8.0,13.0,59,0.00,,---,0.00,VWS V14.01,2013-02-21 23:27:00,
2013-02-21 15:30:00,38.4,24.9,30.12,SW,229,10.0,17.0,58,0.00,,---,0.00,VWS V14.01,2013-02-21 23:30:00,
2013-02-21 15:32:00,38.4,25.3,30.11,WSW,248,7.0,8.0,59,0.00,,---,0.00,VWS V14.01,2013-02-21 23:32:00,
2013-02-21 15:37:00,38.6,25.9,30.11,SW,229,5.0,9.0,60,0.00,,---,0.00,VWS V14.01,2013-02-21 23:37:00,
2013-02-21 15:42:00,38.8,25.3,30.11,SW,218,5.0,11.0,58,0.00,,---,0.00,VWS V14.01,2013-02-21 23:42:00,
2013-02-21 15:45:00,37.9,25.3,30.11,SW,232,8.0,20.0,60,0.00,,---,0.00,VWS V14.01,2013-02-21 23:45:00,
2013-02-21 15:47:00,38.9,25.4,30.11,WSW,242,5.0,6.0,58,0.00,,---,0.00,VWS V14.01,2013-02-21 23:47:00,
2013-02-21 15:52:00,39.0,24.6,30.11,SW,222,19.0,19.0,56,0.00,,---,0.00,VWS V14.01,2013-02-21 23:52:00,
2013-02-21 15:57:00,39.0,25.1,30.11,SW,230,8.0,19.0,57,0.00,,---,0.00,VWS V14.01,2013-02-21 23:57:00,
2013-02-21 16:00:00,37.7,25.5,30.11,WSW,238,7.0,18.0,61,0.00,,---,0.00,VWS V14.01,2013-02-22 00:00:00,
2013-02-21 16:02:00,39.0,24.6,30.11,WSW,239,12.0,17.0,56,0.00,,---,0.00,VWS V14.01,2013-02-22 00:02:00,
2013-02-21 16:07:00,38.8,24.9,30.11,SW,219,16.0,19.0,57,0.00,,---,0.00,VWS V14.01,2013-02-22 00:07:00,
2013-02-21 16:12:00,38.7,25.2,30.11,SW,221,6.0,19.0,58,0.00,,---,0.00,VWS V14.01,2013-02-22 00:12:00,
2013-02-21 16:15:00,37.5,25.7,30.11,WSW,244,10.0,17.0,62,0.00,,---,0.00,VWS V14.01,2013-02-22 00:15:00,
2013-02-21 16:17:00,38.6,25.1,30.11,SSW,207,6.0,10.0,58,0.00,,---,0.00,VWS V14.01,2013-02-22 00:17:00,
2013-02-21 16:22:00,38.6,24.7,30.11,SSW,199,8.0,17.0,57,0.00,,---,0.00,VWS V14.01,2013-02-22 00:22:00,
2013-02-21 16:27:00,38.5,24.6,30.11,SW,232,11.0,17.0,57,0.00,,---,0.00,VWS V14.01,2013-02-22 00:27:00,
2013-02-21 16:30:00,37.3,25.5,30.12,SW,223,13.0,17.0,62,0.00,,---,0.00,VWS V14.01,2013-02-22 00:30:00,
2013-02-21 16:32:00,38.3,24.8,30.11,SW,236,13.0,20.0,58,0.00,,---,0.00,VWS V14.01,2013-02-22 00:32:00,
2013-02-21 16:37:00,38.2,25.1,30.11,SW,232,11.0,20.0,59,0.00,,---,0.00,VWS V14.01,2013-02-22 00:37:00,
2013-02-21 16:42:00,38.1,25.1,30.11,SW,228,10.0,20.0,59,0.00,,---,0.00,VWS V14.01,2013-02-22 00:42:00,
2013-02-21 16:45:00,37.2,25.4,30.12,SW,236,9.0,17.0,62,0.00,,---,0.00,VWS V14.01,2013-02-22 00:45:00,
2013-02-21 16:47:00,37.9,25.3,30.11,SW,234,7.0,11.0,60,0.00,,---,0.00,VWS V14.01,2013-02-22 00:47:00,
2013-02-21 16:52:00,37.7,25.5,30.11,SW,232,6.0,12.0,61,0.00,,---,0.00,VWS V14.01,2013-02-22 00:52:00,
2013-02-21 16:57:00,37.8,25.6,30.11,SW,227,6.0,18.0,61,0.00,,---,0.00,VWS V14.01,2013-02-22 00:57:00,
2013-02-21 17:00:00,36.8,25.4,30.12,SW,219,10.0,20.0,63,0.00,,---,0.00,VWS V14.01,2013-02-22 01:00:00,
2013-02-21 17:02:00,37.6,25.0,30.11,SW,236,8.0,11.0,60,0.00,,---,0.00,VWS V14.01,2013-02-22 01:02:00,
2013-02-21 17:07:00,37.7,25.5,30.11,WSW,246,7.0,13.0,61,0.00,,---,0.00,VWS V14.01,2013-02-22 01:07:00,
2013-02-21 17:12:00,37.5,25.7,30.11,WSW,237,15.0,16.0,62,0.00,,---,0.00,VWS V14.01,2013-02-22 01:12:00,
2013-02-21 17:15:00,36.5,25.9,30.11,SW,214,11.0,16.0,65,0.00,,---,0.00,VWS V14.01,2013-02-22 01:15:00,
2013-02-21 17:17:00,37.4,25.6,30.11,WSW,244,15.0,15.0,62,0.00,,---,0.00,VWS V14.01,2013-02-22 01:17:00,
2013-02-21 17:22:00,37.3,25.9,30.11,WSW,237,11.0,17.0,63,0.00,,---,0.00,VWS V14.01,2013-02-22 01:22:00,
2013-02-21 17:27:00,37.3,25.9,30.12,SW,234,11.0,17.0,63,0.00,,---,0.00,VWS V14.01,2013-02-22 01:27:00,
2013-02-21 17:30:00,36.2,25.6,30.12,SW,219,7.0,12.0,65,0.00,,---,0.00,VWS V14.01,2013-02-22 01:30:00,
2013-02-21 17:32:00,37.3,25.5,30.12,WSW,238,9.0,15.0,62,0.00,,---,0.00,VWS V14.01,2013-02-22 01:32:00,
2013-02-21 17:37:00,37.3,25.5,30.12,WSW,237,9.0,17.0,62,0.00,,---,0.00,VWS V14.01,2013-02-22 01:37:00,
2013-02-21 17:42:00,37.3,25.5,30.12,SW,228,11.0,17.0,62,0.00,,---,0.00,VWS V14.01,2013-02-22 01:42:00,
2013-02-21 17:45:00,36.0,26.1,30.12,SSW,213,4.0,13.0,67,0.00,,---,0.00,VWS V14.01,2013-02-22 01:45:00,
2013-02-21 17:47:00,37.2,25.4,30.12,SW,227,16.0,20.0,62,0.00,,---,0.00,VWS V14.01,2013-02-22 01:47:00,
2013-02-21 17:52:00,37.1,25.3,30.12,SW,227,10.0,20.0,62,0.00,,---,0.00,VWS V14.01,2013-02-22 01:52:00,
2013-02-21 17:57:00,37.0,25.6,30.11,SW,215,10.0,20.0,63,0.00,,---,0.00,VWS V14.01,2013-02-22 01:57:00,
2013-02-21 18:00:00,35.9,26.0,30.13,WSW,238,3.0,8.0,67,0.00,,---,0.00,VWS V14.01,2013-02-22 02:00:00,
2013-02-21 18:01:00,36.7,25.3,30.11,SW,227,7.0,13.0,63,0.00,,---,0.00,VWS V14.01,2013-02-22 02:01:00,
2013-02-21 18:06:00,36.7,25.7,30.11,SW,223,6.0,13.0,64,0.00,,---,0.00,VWS V14.01,2013-02-22 02:06:00,
2013-02-21 18:11:00,36.5,25.9,30.11,SW,220,7.0,13.0,65,0.00,,---,0.00,VWS V14.01,2013-02-22 02:11:00,
2013-02-21 18:15:00,35.9,26.4,30.13,WSW,248,3.0,9.0,68,0.00,,---,0.00,VWS V14.01,2013-02-22 02:15:00,
2013-02-21 18:16:00,36.5,25.9,30.11,SW,220,8.0,11.0,65,0.00,,---,0.00,VWS V14.01,2013-02-22 02:16:00,
2013-02-21 18:21:00,36.4,25.8,30.12,SW,223,6.0,11.0,65,0.00,,---,0.00,VWS V14.01,2013-02-22 02:21:00,
2013-02-21 18:26:00,36.3,26.0,30.12,SW,222,9.0,11.0,66,0.00,,---,0.00,VWS V14.01,2013-02-22 02:26:00,
2013-02-21 18:30:00,35.9,26.4,30.14,WSW,244,0.0,8.0,68,0.00,,---,0.00,VWS V14.01,2013-02-22 02:30:00,
2013-02-21 18:31:00,36.3,26.0,30.12,SW,234,7.0,11.0,66,0.00,,---,0.00,VWS V14.01,2013-02-22 02:31:00,
2013-02-21 18:36:00,36.2,26.0,30.12,SW,221,8.0,13.0,66,0.00,,---,0.00,VWS V14.01,2013-02-22 02:36:00,
2013-02-21 18:41:00,36.1,25.9,30.12,SW,219,2.0,13.0,66,0.00,,---,0.00,VWS V14.01,2013-02-22 02:41:00,
2013-02-21 18:45:00,35.9,26.4,30.15,SSW,198,0.0,8.0,68,0.00,,---,0.00,VWS V14.01,2013-02-22 02:45:00,
2013-02-21 18:46:00,36.0,26.1,30.12,SW,221,4.0,6.0,67,0.00,,---,0.00,VWS V14.01,2013-02-22 02:46:00,
2013-02-21 18:51:00,36.0,26.1,30.12,SW,219,7.0,7.0,67,0.00,,---,0.00,VWS V14.01,2013-02-22 02:51:00,
2013-02-21 18:56:00,36.0,26.1,30.12,SW,226,4.0,8.0,67,0.00,,---,0.00,VWS V14.01,2013-02-22 02:56:00,
2013-02-21 19:00:00,35.7,26.9,30.14,SSW,199,0.0,0.0,70,0.00,,---,0.00,VWS V14.01,2013-02-22 03:00:00,
2013-02-21 19:01:00,35.8,25.9,30.13,WSW,240,5.0,5.0,67,0.00,,---,0.00,VWS V14.01,2013-02-22 03:01:00,
2013-02-21 19:06:00,35.7,25.8,30.13,WSW,242,7.0,7.0,67,0.00,,---,0.00,VWS V14.01,2013-02-22 03:06:00,
2013-02-21 19:11:00,35.8,26.3,30.13,WSW,241,3.0,9.0,68,0.00,,---,0.00,VWS V14.01,2013-02-22 03:11:00,
2013-02-21 19:15:00,35.4,27.0,30.15,SSW,199,0.0,0.0,71,0.00,,---,0.00,VWS V14.01,2013-02-22 03:15:00,
2013-02-21 19:16:00,35.9,26.0,30.14,WSW,248,0.0,3.0,67,0.00,,---,0.00,VWS V14.01,2013-02-22 03:16:00,
2013-02-21 19:21:00,35.7,26.2,30.14,WSW,248,0.0,3.0,68,0.00,,---,0.00,VWS V14.01,2013-02-22 03:21:00,
2013-02-21 19:26:00,35.8,26.3,30.15,WSW,241,5.0,8.0,68,0.00,,---,0.00,VWS V14.01,2013-02-22 03:26:00,
2013-02-21 19:30:00,35.0,26.9,30.14,East,97,6.0,6.0,72,0.00,,---,0.00,VWS V14.01,2013-02-22 03:30:00,
2013-02-21 19:31:00,35.9,26.4,30.15,WSW,245,0.0,0.0,68,0.00,,---,0.00,VWS V14.01,2013-02-22 03:31:00,
2013-02-21 19:36:00,36.0,26.5,30.15,SW,233,2.0,7.0,68,0.00,,---,0.00,VWS V14.01,2013-02-22 03:36:00,
2013-02-21 19:41:00,35.9,26.4,30.15,SSW,209,8.0,8.0,68,0.00,,---,0.00,VWS V14.01,2013-02-22 03:41:00,
2013-02-21 19:45:00,34.1,28.6,30.14,East,80,8.0,11.0,80,0.00,,---,0.00,VWS V14.01,2013-02-22 03:45:00,
2013-02-21 19:46:00,35.9,26.4,30.15,SSW,198,0.0,0.0,68,0.00,,---,0.00,VWS V14.01,2013-02-22 03:46:00,
2013-02-21 19:51:00,35.9,26.7,30.15,SSW,198,0.0,0.0,69,0.00,,---,0.00,VWS V14.01,2013-02-22 03:51:00,
2013-02-21 19:56:00,35.8,26.6,30.15,SSW,199,0.0,0.0,69,0.00,,---,0.00,VWS V14.01,2013-02-22 03:56:00,
2013-02-21 20:00:00,33.3,29.3,30.14,ENE,78,5.0,11.0,85,0.00,,---,0.00,VWS V14.01,2013-02-22 04:00:00,
2013-02-21 20:01:00,35.7,26.9,30.14,SSW,198,0.0,0.0,70,0.00,,---,0.00,VWS V14.01,2013-02-22 04:01:00,
2013-02-21 20:06:00,35.6,26.8,30.14,SSW,198,0.0,0.0,70,0.00,,---,0.00,VWS V14.01,2013-02-22 04:06:00,
2013-02-21 20:11:00,35.5,27.0,30.15,SSW,199,0.0,0.0,71,0.00,,---,0.00,VWS V14.01,2013-02-22 04:11:00,
2013-02-21 20:15:00,32.9,29.5,30.14,ENE,61,4.0,7.0,87,0.00,,---,0.00,VWS V14.01,2013-02-22 04:15:00,
2013-02-21 20:16:00,35.4,27.0,30.15,SSW,198,0.0,0.0,71,0.00,,---,0.00,VWS V14.01,2013-02-22 04:16:00,
2013-02-21 20:21:00,35.3,26.9,30.14,SSW,198,0.0,0.0,71,0.00,,---,0.00,VWS V14.01,2013-02-22 04:21:00,
2013-02-21 20:26:00,35.0,26.9,30.14,SE,142,0.0,6.0,72,0.00,,---,0.00,VWS V14.01,2013-02-22 04:26:00,
2013-02-21 20:30:00,32.5,29.4,30.14,ENE,65,4.0,6.0,88,0.00,,---,0.00,VWS V14.01,2013-02-22 04:30:00,
2013-02-21 20:31:00,35.0,27.2,30.14,East,100,6.0,9.0,73,0.00,,---,0.00,VWS V14.01,2013-02-22 04:31:00,
2013-02-21 20:36:00,34.4,27.6,30.14,East,94,9.0,11.0,76,0.00,,---,0.00,VWS V14.01,2013-02-22 04:36:00,
2013-02-21 20:41:00,34.4,28.3,30.14,East,79,6.0,11.0,78,0.00,,---,0.00,VWS V14.01,2013-02-22 04:41:00,
2013-02-21 20:45:00,32.4,29.2,30.14,ENE,66,3.0,5.0,88,0.00,,---,0.00,VWS V14.01,2013-02-22 04:45:00,
2013-02-21 20:46:00,34.1,28.9,30.14,East,84,7.0,10.0,81,0.00,,---,0.00,VWS V14.01,2013-02-22 04:46:00,
2013-02-21 20:51:00,33.7,29.1,30.14,ENE,74,5.0,11.0,83,0.00,,---,0.00,VWS V14.01,2013-02-22 04:51:00,
2013-02-21 20:56:00,33.4,29.4,30.14,ENE,74,7.0,11.0,85,0.00,,---,0.00,VWS V14.01,2013-02-22 04:56:00,
2013-02-21 21:00:00,33.3,29.3,30.14,ENE,78,5.0,11.0,85,0.00,,---,0.00,VWS V14.01,2013-02-22 05:00:00,
2013-02-21 21:01:00,33.3,29.3,30.14,ENE,77,3.0,5.0,85,0.00,,---,0.00,VWS V14.01,2013-02-22 05:01:00,
2013-02-21 21:06:00,33.2,29.5,30.14,ENE,69,5.0,7.0,86,0.00,,---,0.00,VWS V14.01,2013-02-22 05:06:00,
2013-02-21 21:11:00,33.0,29.6,30.14,ENE,65,4.0,7.0,87,0.00,,---,0.00,VWS V14.01,2013-02-22 05:11:00,
2013-02-21 21:15:00,32.3,29.1,30.15,ENE,65,0.0,3.0,88,0.00,,---,0.00,VWS V14.01,2013-02-22 05:15:00,
2013-02-21 21:16:00,32.9,29.5,30.14,ENE,61,5.0,5.0,87,0.00,,---,0.00,VWS V14.01,2013-02-22 05:16:00,
2013-02-21 21:21:00,32.7,29.3,30.14,ENE,64,4.0,6.0,87,0.00,,---,0.00,VWS V14.01,2013-02-22 05:21:00,
2013-02-21 21:26:00,32.6,29.5,30.14,ENE,66,3.0,6.0,88,0.00,,---,0.00,VWS V14.01,2013-02-22 05:26:00,
2013-02-21 21:30:00,32.3,28.9,30.15,ENE,65,0.0,0.0,87,0.00,,---,0.00,VWS V14.01,2013-02-22 05:30:00,
2013-02-21 21:31:00,32.5,29.4,30.14,ENE,66,3.0,4.0,88,0.00,,---,0.00,VWS V14.01,2013-02-22 05:31:00,
2013-02-21 21:36:00,32.5,29.4,30.13,ENE,66,3.0,5.0,88,0.00,,---,0.00,VWS V14.01,2013-02-22 05:36:00,
2013-02-21 21:41:00,32.4,29.2,30.13,ENE,66,3.0,5.0,88,0.00,,---,0.00,VWS V14.01,2013-02-22 05:41:00,
2013-02-21 21:45:00,32.5,29.1,30.15,ENE,66,0.0,0.0,87,0.00,,---,0.00,VWS V14.01,2013-02-22 05:45:00,
2013-02-21 21:46:00,32.4,29.2,30.14,ENE,66,3.0,3.0,88,0.00,,---,0.00,VWS V14.01,2013-02-22 05:46:00,
2013-02-21 21:51:00,32.3,29.1,30.14,ENE,66,0.0,3.0,88,0.00,,---,0.00,VWS V14.01,2013-02-22 05:51:00,
2013-02-21 21:56:00,32.4,29.5,30.15,ENE,65,0.0,3.0,89,0.00,,---,0.00,VWS V14.01,2013-02-22 05:56:00,
2013-02-21 22:00:00,32.2,28.8,30.15,ENE,66,0.0,0.0,87,0.00,,---,0.00,VWS V14.01,2013-02-22 06:00:00,
2013-02-21 22:01:00,32.4,29.2,30.15,ENE,66,0.0,0.0,88,0.00,,---,0.00,VWS V14.01,2013-02-22 06:01:00,
2013-02-21 22:06:00,32.4,29.2,30.15,ENE,66,1.0,3.0,88,0.00,,---,0.00,VWS V14.01,2013-02-22 06:06:00,
2013-02-21 22:11:00,32.3,29.1,30.15,ENE,66,0.0,3.0,88,0.00,,---,0.00,VWS V14.01,2013-02-22 06:11:00,
2013-02-21 22:15:00,32.1,28.7,30.15,ENE,66,0.0,0.0,87,0.00,,---,0.00,VWS V14.01,2013-02-22 06:15:00,
2013-02-21 22:16:00,32.3,29.1,30.14,ENE,66,0.0,0.0,88,0.00,,---,0.00,VWS V14.01,2013-02-22 06:16:00,
2013-02-21 22:21:00,32.3,29.1,30.15,ENE,66,0.0,0.0,88,0.00,,---,0.00,VWS V14.01,2013-02-22 06:21:00,
2013-02-21 22:26:00,32.3,29.1,30.15,ENE,66,0.0,0.0,88,0.00,,---,0.00,VWS V14.01,2013-02-22 06:26:00,
2013-02-21 22:30:00,32.1,28.7,30.16,ENE,65,0.0,0.0,87,0.00,,---,0.00,VWS V14.01,2013-02-22 06:30:00,
2013-02-21 22:31:00,32.4,29.0,30.15,ENE,66,0.0,0.0,87,0.00,,---,0.00,VWS V14.01,2013-02-22 06:31:00,
2013-02-21 22:36:00,32.4,29.0,30.15,ENE,66,0.0,0.0,87,0.00,,---,0.00,VWS V14.01,2013-02-22 06:36:00,
2013-02-21 22:41:00,32.5,29.1,30.15,ENE,66,0.0,0.0,87,0.00,,---,0.00,VWS V14.01,2013-02-22 06:41:00,
2013-02-21 22:45:00,32.2,28.8,30.16,ENE,65,0.0,0.0,87,0.00,,---,0.00,VWS V14.01,2013-02-22 06:45:00,
2013-02-21 22:46:00,32.5,29.1,30.15,ENE,66,0.0,0.0,87,0.00,,---,0.00,VWS V14.01,2013-02-22 06:46:00,
2013-02-21 22:51:00,32.4,29.0,30.15,ENE,65,0.0,0.0,87,0.00,,---,0.00,VWS V14.01,2013-02-22 06:51:00,
2013-02-21 22:56:00,32.3,28.9,30.15,ENE,66,0.0,0.0,87,0.00,,---,0.00,VWS V14.01,2013-02-22 06:56:00,
2013-02-21 23:00:00,32.0,28.6,30.16,ENE,66,0.0,0.0,87,0.00,,---,0.00,VWS V14.01,2013-02-22 07:00:00,
2013-02-21 23:01:00,32.2,28.8,30.15,ENE,66,0.0,0.0,87,0.00,,---,0.00,VWS V14.01,2013-02-22 07:01:00,
2013-02-21 23:06:00,32.2,28.8,30.15,ENE,65,0.0,0.0,87,0.00,,---,0.00,VWS V14.01,2013-02-22 07:06:00,
2013-02-21 23:11:00,32.1,28.7,30.15,ENE,66,0.0,0.0,87,0.00,,---,0.00,VWS V14.01,2013-02-22 07:11:00,
2013-02-21 23:15:00,31.9,28.5,30.15,ENE,66,0.0,4.0,87,0.00,,---,0.00,VWS V14.01,2013-02-22 07:15:00,
2013-02-21 23:16:00,32.1,28.7,30.15,ENE,66,0.0,0.0,87,0.00,,---,0.00,VWS V14.01,2013-02-22 07:16:00,
2013-02-21 23:20:00,32.2,28.8,30.16,ENE,66,0.0,0.0,87,0.00,,---,0.00,VWS V14.01,2013-02-22 07:20:00,
2013-02-21 23:25:00,32.2,28.8,30.16,ENE,65,0.0,0.0,87,0.00,,---,0.00,VWS V14.01,2013-02-22 07:25:00,
2013-02-21 23:30:00,32.1,28.7,30.16,ENE,66,0.0,0.0,87,0.00,,---,0.00,VWS V14.01,2013-02-22 07:30:00,
2013-02-21 23:35:00,32.1,28.7,30.16,ENE,65,0.0,0.0,87,0.00,,---,0.00,VWS V14.01,2013-02-22 07:35:00,
2013-02-21 23:40:00,32.2,28.8,30.16,ENE,66,0.0,0.0,87,0.00,,---,0.00,VWS V14.01,2013-02-22 07:40:00,
2013-02-21 23:45:00,32.2,28.8,30.16,ENE,66,0.0,0.0,87,0.00,,---,0.00,VWS V14.01,2013-02-22 07:45:00,
2013-02-21 23:50:00,32.1,28.7,30.16,ENE,66,0.0,0.0,87,0.00,,---,0.00,VWS V14.01,2013-02-22 07:50:00,
2013-02-21 23:55:00,31.9,28.5,30.16,ENE,66,0.0,0.0,87,0.00,,---,0.00,VWS V14.01,2013-02-22 07:55:00,